createdAt,value
2019-03-16T00:00:13.657Z,6.90
2019-03-16T00:02:42.127Z,6.90
2019-03-16T00:05:10.564Z,6.90
2019-03-16T00:07:38.995Z,6.80
2019-03-16T00:10:08.104Z,6.80
2019-03-16T00:12:36.641Z,6.80
2019-03-16T00:15:07.367Z,6.80
2019-03-16T00:17:35.857Z,6.80
2019-03-16T00:20:07.739Z,6.80
2019-03-16T00:22:36.200Z,6.80
2019-03-16T00:25:06.735Z,6.80
2019-03-16T00:27:35.158Z,6.90
2019-03-16T00:30:05.608Z,6.90
2019-03-16T00:32:34.307Z,6.90
2019-03-16T00:35:02.889Z,6.80
2019-03-16T00:37:31.373Z,6.80
2019-03-16T00:39:59.808Z,6.80
2019-03-16T00:42:28.245Z,6.90
2019-03-16T00:44:56.873Z,6.80
2019-03-16T00:47:25.317Z,6.90
2019-03-16T00:49:53.773Z,6.90
2019-03-16T00:52:22.197Z,6.90
2019-03-16T00:54:51.496Z,6.90
2019-03-16T00:57:19.914Z,6.90
2019-03-16T00:59:48.361Z,7.00
2019-03-16T01:02:26.417Z,6.90
2019-03-16T01:04:46.960Z,6.90
2019-03-16T01:07:15.461Z,6.90
2019-03-16T01:09:43.916Z,6.90
2019-03-16T01:12:12.409Z,6.90
2019-03-16T01:14:40.845Z,6.90
2019-03-16T01:17:09.269Z,6.90
2019-03-16T01:19:37.708Z,6.80
2019-03-16T01:22:06.150Z,6.90
2019-03-16T01:24:34.604Z,6.90
2019-03-16T01:27:03.041Z,6.80
2019-03-16T01:29:31.516Z,6.80
2019-03-16T01:31:59.938Z,6.80
2019-03-16T01:34:28.410Z,6.80
2019-03-16T01:36:56.986Z,6.90
2019-03-16T01:39:25.431Z,6.90
2019-03-16T01:41:53.857Z,6.90
2019-03-16T01:44:22.302Z,6.80
2019-03-16T01:46:50.729Z,6.80
2019-03-16T01:49:24.909Z,6.80
2019-03-16T01:51:53.552Z,6.90
2019-03-16T01:54:21.994Z,6.90
2019-03-16T01:56:50.428Z,6.80
2019-03-16T01:59:18.872Z,6.90
2019-03-16T02:01:49.366Z,6.90
2019-03-16T02:04:17.834Z,6.90
2019-03-16T02:06:46.332Z,6.90
2019-03-16T02:09:14.757Z,6.90
2019-03-16T02:11:43.195Z,6.90
2019-03-16T02:14:11.620Z,6.90
2019-03-16T02:16:40.328Z,6.80
2019-03-16T02:19:08.753Z,6.80
2019-03-16T02:21:37.211Z,6.80
2019-03-16T02:24:05.981Z,6.80
2019-03-16T02:26:34.467Z,6.80
2019-03-16T02:29:02.954Z,6.80
2019-03-16T02:31:31.410Z,6.80
2019-03-16T02:33:59.852Z,6.90
2019-03-16T02:36:28.281Z,6.90
2019-03-16T02:38:56.696Z,6.80
2019-03-16T02:41:25.395Z,6.90
2019-03-16T02:43:53.886Z,6.90
2019-03-16T02:46:22.407Z,7.00
2019-03-16T02:48:51.094Z,6.90
2019-03-16T02:51:19.556Z,6.90
2019-03-16T02:53:48.042Z,6.90
2019-03-16T02:56:16.489Z,6.80
2019-03-16T02:58:44.961Z,6.90
2019-03-16T03:01:13.395Z,6.90
2019-03-16T03:03:41.817Z,6.80
2019-03-16T03:06:10.294Z,6.80
2019-03-16T03:08:38.731Z,6.80
2019-03-16T03:11:07.158Z,6.80
2019-03-16T03:13:35.597Z,6.80
2019-03-16T03:16:04.695Z,6.80
2019-03-16T03:18:33.216Z,6.80
2019-03-16T03:21:01.665Z,6.80
2019-03-16T03:23:30.167Z,6.80
2019-03-16T03:25:58.677Z,6.80
2019-03-16T03:28:27.112Z,6.80
2019-03-16T03:30:55.551Z,6.80
2019-03-16T03:33:24.066Z,6.80
2019-03-16T03:35:52.697Z,6.70
2019-03-16T03:38:21.180Z,6.70
2019-03-16T03:40:49.607Z,6.60
2019-03-16T03:43:18.033Z,6.70
2019-03-16T03:45:46.472Z,6.70
2019-03-16T03:48:15.189Z,6.70
2019-03-16T03:50:43.633Z,6.70
2019-03-16T03:53:12.121Z,6.70
2019-03-16T03:55:40.970Z,6.60
2019-03-16T03:58:09.394Z,6.60
2019-03-16T04:00:37.822Z,6.50
2019-03-16T04:03:06.700Z,6.60
2019-03-16T04:05:35.248Z,6.60
2019-03-16T04:08:03.803Z,6.60
2019-03-16T04:10:37.962Z,6.60
2019-03-16T04:13:06.410Z,6.60
2019-03-16T04:15:34.847Z,6.60
2019-03-16T04:18:03.276Z,6.60
2019-03-16T04:20:31.704Z,6.60
2019-03-16T04:23:00.158Z,6.60
2019-03-16T04:25:30.315Z,6.60
2019-03-16T04:27:58.809Z,6.60
2019-03-16T04:30:27.250Z,6.60
2019-03-16T04:32:55.689Z,6.60
2019-03-16T04:35:24.114Z,6.50
2019-03-16T04:37:52.544Z,6.50
2019-03-16T04:40:23.905Z,6.50
2019-03-16T04:42:52.346Z,6.50
2019-03-16T04:45:20.762Z,6.50
2019-03-16T04:47:49.219Z,6.60
2019-03-16T04:50:17.637Z,6.50
2019-03-16T04:52:46.093Z,6.50
2019-03-16T04:55:14.530Z,6.50
2019-03-16T04:57:43.118Z,6.50
2019-03-16T05:00:13.799Z,6.50
2019-03-16T05:02:42.296Z,6.40
2019-03-16T05:05:10.963Z,6.40
2019-03-16T05:07:39.497Z,6.40
2019-03-16T05:10:10.350Z,6.50
2019-03-16T05:12:38.788Z,6.50
2019-03-16T05:15:08.694Z,6.50
2019-03-16T05:17:37.145Z,6.50
2019-03-16T05:20:08.784Z,6.50
2019-03-16T05:22:37.215Z,6.50
2019-03-16T05:25:10.453Z,6.60
2019-03-16T05:27:38.891Z,6.60
2019-03-16T05:30:14.708Z,6.60
2019-03-16T05:32:43.173Z,6.60
2019-03-16T05:35:12.024Z,6.60
2019-03-16T05:37:40.458Z,6.60
2019-03-16T05:40:10.240Z,6.50
2019-03-16T05:42:38.690Z,6.60
2019-03-16T05:45:09.298Z,6.60
2019-03-16T05:47:37.771Z,6.50
2019-03-16T05:50:11.711Z,6.60
2019-03-16T05:52:40.138Z,6.50
2019-03-16T05:55:09.236Z,6.50
2019-03-16T05:57:37.677Z,6.40
2019-03-16T06:00:09.920Z,6.40
2019-03-16T06:02:38.628Z,6.40
2019-03-16T06:05:11.014Z,6.50
2019-03-16T06:07:39.522Z,6.40
2019-03-16T06:10:12.027Z,6.50
2019-03-16T06:12:40.452Z,6.50
2019-03-16T06:15:10.622Z,6.50
2019-03-16T06:17:39.069Z,6.40
2019-03-16T06:20:13.302Z,6.50
2019-03-16T06:22:41.821Z,6.60
2019-03-16T06:25:10.290Z,6.60
2019-03-16T06:27:38.724Z,6.50
2019-03-16T06:30:12.596Z,6.50
2019-03-16T06:32:41.025Z,6.60
2019-03-16T06:35:23.438Z,6.50
2019-03-16T06:37:39.617Z,6.50
2019-03-16T06:40:10.927Z,6.50
2019-03-16T06:42:40.408Z,6.60
2019-03-16T06:45:10.835Z,6.60
2019-03-16T06:47:39.750Z,6.50
2019-03-16T06:50:13.413Z,7.90
2019-03-16T06:52:41.840Z,8.80
2019-03-16T06:55:10.831Z,9.30
2019-03-16T06:57:39.252Z,9.10
2019-03-16T07:00:18.328Z,9.00
2019-03-16T07:02:46.760Z,8.90
2019-03-16T07:05:15.465Z,9.00
2019-03-16T07:07:43.902Z,9.30
2019-03-16T07:10:15.266Z,9.30
2019-03-16T07:12:43.749Z,8.80
2019-03-16T07:15:13.449Z,9.80
2019-03-16T07:17:41.889Z,9.50
2019-03-16T07:20:12.829Z,9.50
2019-03-16T07:22:41.271Z,10.10
2019-03-16T07:25:10.064Z,9.90
2019-03-16T07:27:38.744Z,10.30
2019-03-16T07:30:10.310Z,8.80
2019-03-16T07:32:38.764Z,7.80
2019-03-16T07:35:07.910Z,7.10
2019-03-16T07:37:36.354Z,7.00
2019-03-16T07:40:07.991Z,6.90
2019-03-16T07:42:36.431Z,6.90
2019-03-16T07:45:08.880Z,6.70
2019-03-16T07:47:37.714Z,6.80
2019-03-16T07:50:08.750Z,6.80
2019-03-16T07:52:37.186Z,6.70
2019-03-16T07:55:06.864Z,6.80
2019-03-16T07:57:40.071Z,6.90
2019-03-16T08:00:08.830Z,7.00
2019-03-16T08:02:37.381Z,7.10
2019-03-16T08:05:17.336Z,7.10
2019-03-16T08:07:36.441Z,7.20
2019-03-16T08:10:08.218Z,7.00
2019-03-16T08:12:36.660Z,7.00
2019-03-16T08:15:07.425Z,7.20
2019-03-16T08:17:35.862Z,7.30
2019-03-16T08:20:06.953Z,7.20
2019-03-16T08:22:35.400Z,7.20
2019-03-16T08:25:03.992Z,7.20
2019-03-16T08:27:32.441Z,7.40
2019-03-16T08:30:00.864Z,7.50
2019-03-16T08:32:30.052Z,7.50
2019-03-16T08:35:00.452Z,7.30
2019-03-16T08:37:29.798Z,7.40
2019-03-16T08:39:58.644Z,7.40
2019-03-16T08:42:27.315Z,7.20
2019-03-16T08:44:56.480Z,7.30
2019-03-16T08:47:25.178Z,7.40
2019-03-16T08:49:53.657Z,7.40
2019-03-16T08:52:22.127Z,7.40
2019-03-16T08:54:50.558Z,7.40
2019-03-16T08:57:18.981Z,7.50
2019-03-16T08:59:47.436Z,7.60
2019-03-16T09:02:15.864Z,7.60
2019-03-16T09:04:44.293Z,7.50
2019-03-16T09:07:12.741Z,7.40
2019-03-16T09:09:41.184Z,7.50
2019-03-16T09:12:09.614Z,7.50
2019-03-16T09:14:38.045Z,7.50
2019-03-16T09:17:08.898Z,7.70
2019-03-16T09:19:36.651Z,7.70
2019-03-16T09:22:05.131Z,7.60
2019-03-16T09:24:33.557Z,7.50
2019-03-16T09:27:01.976Z,7.40
2019-03-16T09:29:30.435Z,7.40
2019-03-16T09:31:58.856Z,7.30
2019-03-16T09:34:27.300Z,7.30
2019-03-16T09:36:55.716Z,7.20
2019-03-16T09:39:24.207Z,7.10
2019-03-16T09:41:52.722Z,7.10
2019-03-16T09:44:21.192Z,7.10
2019-03-16T09:46:49.649Z,7.10
2019-03-16T09:49:20.269Z,7.20
2019-03-16T09:51:48.699Z,7.30
2019-03-16T09:54:17.203Z,7.20
2019-03-16T09:56:45.624Z,7.20
2019-03-16T09:59:14.049Z,7.00
2019-03-16T10:01:42.490Z,7.10
2019-03-16T10:04:10.917Z,7.10
2019-03-16T10:06:39.354Z,7.20
2019-03-16T10:09:08.240Z,7.00
2019-03-16T10:11:36.676Z,7.00
2019-03-16T10:14:05.366Z,6.90
2019-03-16T10:16:33.800Z,6.90
2019-03-16T10:19:02.222Z,7.00
2019-03-16T10:21:30.654Z,7.10
2019-03-16T10:23:59.088Z,7.10
2019-03-16T10:26:27.528Z,7.10
2019-03-16T10:28:56.084Z,7.10
2019-03-16T10:31:24.560Z,7.20
2019-03-16T10:33:52.984Z,7.10
2019-03-16T10:36:21.413Z,7.30
2019-03-16T10:38:49.832Z,7.20
2019-03-16T10:41:18.264Z,7.10
2019-03-16T10:43:46.686Z,7.10
2019-03-16T10:46:15.130Z,7.00
2019-03-16T10:48:43.552Z,7.20
2019-03-16T10:51:12.085Z,7.30
2019-03-16T10:53:40.503Z,7.40
2019-03-16T10:56:09.037Z,7.40
2019-03-16T10:58:37.470Z,7.30
2019-03-16T11:01:05.924Z,7.30
2019-03-16T11:03:34.353Z,7.30
2019-03-16T11:06:02.810Z,7.20
2019-03-16T11:08:31.242Z,7.40
2019-03-16T11:10:59.729Z,7.50
2019-03-16T11:13:28.188Z,7.30
2019-03-16T11:15:56.625Z,7.30
2019-03-16T11:18:25.100Z,7.30
2019-03-16T11:20:53.524Z,7.10
2019-03-16T11:23:21.977Z,7.10
2019-03-16T11:25:50.536Z,6.90
2019-03-16T11:28:18.960Z,6.90
2019-03-16T11:30:47.393Z,6.90
2019-03-16T11:33:15.940Z,6.80
2019-03-16T11:35:44.457Z,6.50
2019-03-16T11:38:12.882Z,6.30
2019-03-16T11:40:41.318Z,6.30
2019-03-16T11:43:09.757Z,6.40
2019-03-16T11:45:38.189Z,6.60
2019-03-16T11:48:06.636Z,6.40
2019-03-16T11:50:35.065Z,6.30
2019-03-16T11:53:03.510Z,6.30
2019-03-16T11:55:32.010Z,6.40
2019-03-16T11:58:00.445Z,6.50
2019-03-16T12:00:28.868Z,6.40
2019-03-16T12:02:57.337Z,6.60
2019-03-16T12:05:25.758Z,6.60
2019-03-16T12:07:54.201Z,6.70
2019-03-16T12:10:22.633Z,6.70
2019-03-16T12:12:51.077Z,6.80
2019-03-16T12:15:19.578Z,6.90
2019-03-16T12:17:48.016Z,6.80
2019-03-16T12:20:18.629Z,6.70
2019-03-16T12:22:47.283Z,6.70
2019-03-16T12:25:15.716Z,6.40
2019-03-16T12:27:44.140Z,6.30
2019-03-16T12:30:14.518Z,6.40
2019-03-16T12:32:42.944Z,6.70
2019-03-16T12:35:11.527Z,6.70
2019-03-16T12:37:40.113Z,6.70
2019-03-16T12:40:14.007Z,6.80
2019-03-16T12:42:42.486Z,6.80
2019-03-16T12:45:16.611Z,6.80
2019-03-16T12:47:45.032Z,6.90
2019-03-16T12:50:13.633Z,6.70
2019-03-16T12:52:42.217Z,6.80
2019-03-16T12:55:11.593Z,6.80
2019-03-16T12:57:40.012Z,6.70
2019-03-16T13:00:13.902Z,6.70
2019-03-16T13:02:42.334Z,6.70
2019-03-16T13:05:10.941Z,6.70
2019-03-16T13:07:39.366Z,6.50
2019-03-16T13:10:12.636Z,6.40
2019-03-16T13:12:41.129Z,6.50
2019-03-16T13:15:09.997Z,6.50
2019-03-16T13:17:38.529Z,6.60
2019-03-16T13:20:10.144Z,6.40
2019-03-16T13:22:40.931Z,6.50
2019-03-16T13:25:10.572Z,6.50
2019-03-16T13:27:39.006Z,6.40
2019-03-16T13:30:13.160Z,6.50
2019-03-16T13:32:41.614Z,6.50
2019-03-16T13:35:10.297Z,6.50
2019-03-16T13:37:39.273Z,6.50
2019-03-16T13:40:14.778Z,6.60
2019-03-16T13:42:43.208Z,6.60
2019-03-16T13:45:12.138Z,6.70
2019-03-16T13:47:40.633Z,6.70
2019-03-16T13:50:17.458Z,6.70
2019-03-16T13:52:46.381Z,6.80
2019-03-16T13:55:14.911Z,6.80
2019-03-16T13:57:43.354Z,6.70
2019-03-16T14:00:17.337Z,6.80
2019-03-16T14:02:45.903Z,6.70
2019-03-16T14:05:14.350Z,6.80
2019-03-16T14:07:43.448Z,6.90
2019-03-16T14:10:25.697Z,7.00
2019-03-16T14:12:55.509Z,6.90
2019-03-16T14:15:24.054Z,7.00
2019-03-16T14:17:52.647Z,7.00
2019-03-16T14:20:21.585Z,6.80
2019-03-16T14:22:50.064Z,6.90
2019-03-16T14:25:18.488Z,6.90
2019-03-16T14:27:46.925Z,6.90
2019-03-16T14:30:34.721Z,6.90
2019-03-16T14:32:47.661Z,6.90
2019-03-16T14:35:16.169Z,6.90
2019-03-16T14:37:44.597Z,6.90
2019-03-16T14:40:16.500Z,6.90
2019-03-16T14:42:45.322Z,7.00
2019-03-16T14:45:15.472Z,6.90
2019-03-16T14:47:43.902Z,6.90
2019-03-16T14:50:26.769Z,6.90
2019-03-16T14:52:55.224Z,7.00
2019-03-16T14:55:23.646Z,7.00
2019-03-16T14:57:52.094Z,7.00
2019-03-16T15:00:20.519Z,7.10
2019-03-16T15:02:48.945Z,7.10
2019-03-16T15:05:17.379Z,7.10
2019-03-16T15:07:49.179Z,7.20
2019-03-16T15:10:17.449Z,7.20
2019-03-16T15:12:46.084Z,7.20
2019-03-16T15:15:16.923Z,7.30
2019-03-16T15:17:45.373Z,7.40
2019-03-16T15:20:14.081Z,7.40
2019-03-16T15:22:44.101Z,7.40
2019-03-16T15:25:13.597Z,7.40
2019-03-16T15:27:42.307Z,7.50
2019-03-16T15:30:15.874Z,7.50
2019-03-16T15:32:44.406Z,7.60
2019-03-16T15:35:12.916Z,7.50
2019-03-16T15:37:41.347Z,7.50
2019-03-16T15:40:12.106Z,7.60
2019-03-16T15:42:40.534Z,7.60
2019-03-16T15:45:17.766Z,7.80
2019-03-16T15:47:46.217Z,7.90
2019-03-16T15:50:14.682Z,8.00
2019-03-16T15:52:43.103Z,8.10
2019-03-16T15:55:12.169Z,8.20
2019-03-16T15:57:42.491Z,8.20
2019-03-16T16:00:18.212Z,8.30
2019-03-16T16:02:47.186Z,8.30
2019-03-16T16:05:15.614Z,8.40
2019-03-16T16:07:44.038Z,8.40
2019-03-16T16:10:15.103Z,8.40
2019-03-16T16:12:43.562Z,8.50
2019-03-16T16:15:12.764Z,8.50
2019-03-16T16:17:41.199Z,8.50
2019-03-16T16:20:12.019Z,8.50
2019-03-16T16:22:40.501Z,8.50
2019-03-16T16:25:11.478Z,8.60
2019-03-16T16:27:39.916Z,8.60
2019-03-16T16:30:17.404Z,8.60
2019-03-16T16:32:46.104Z,8.60
2019-03-16T16:35:15.755Z,8.60
2019-03-16T16:38:03.513Z,8.60
2019-03-16T16:40:32.135Z,8.70
2019-03-16T16:43:00.605Z,8.60
2019-03-16T16:45:29.035Z,8.70
2019-03-16T16:47:57.491Z,8.70
2019-03-16T16:50:26.727Z,8.70
2019-03-16T16:52:55.163Z,8.70
2019-03-16T16:55:23.594Z,8.70
2019-03-16T16:57:52.014Z,8.70
2019-03-16T17:00:22.679Z,8.80
2019-03-16T17:03:44.385Z,8.80
2019-03-16T17:06:12.835Z,8.80
2019-03-16T17:08:41.269Z,8.70
2019-03-16T17:11:09.713Z,8.80
2019-03-16T17:13:38.149Z,8.80
2019-03-16T17:16:07.840Z,8.90
2019-03-16T17:18:36.402Z,8.90
2019-03-16T17:21:04.998Z,8.80
2019-03-16T17:23:33.429Z,8.90
2019-03-16T17:26:01.940Z,8.90
2019-03-16T17:28:30.385Z,8.90
2019-03-16T17:31:00.556Z,8.90
2019-03-16T17:33:29.058Z,8.90
2019-03-16T17:35:57.504Z,8.90
2019-03-16T17:38:25.935Z,8.90
2019-03-16T17:40:54.375Z,8.90
2019-03-16T17:43:22.821Z,9.00
2019-03-16T17:45:51.264Z,9.00
2019-03-16T17:48:19.798Z,9.00
2019-03-16T17:50:49.073Z,9.00
2019-03-16T17:53:18.063Z,9.00
2019-03-16T17:55:47.061Z,9.00
2019-03-16T17:58:16.359Z,9.00
2019-03-16T18:00:46.610Z,9.00
2019-03-16T18:03:15.037Z,9.00
2019-03-16T18:05:43.671Z,9.00
2019-03-16T18:08:12.127Z,9.00
2019-03-16T18:10:40.554Z,9.00
2019-03-16T18:13:11.118Z,9.00
2019-03-16T18:15:39.169Z,9.00
2019-03-16T18:18:07.608Z,9.10
2019-03-16T18:20:38.596Z,9.10
2019-03-16T18:23:07.194Z,9.00
2019-03-16T18:25:37.755Z,9.10
2019-03-16T18:28:05.778Z,9.10
2019-03-16T18:30:34.227Z,9.10
2019-03-16T18:33:02.660Z,9.10
2019-03-16T18:35:31.245Z,9.10
2019-03-16T18:38:02.764Z,9.20
2019-03-16T18:40:31.202Z,9.20
2019-03-16T18:42:59.632Z,9.20
2019-03-16T18:45:32.798Z,9.20
2019-03-16T18:48:01.360Z,9.30
2019-03-16T18:50:29.802Z,9.20
2019-03-16T18:52:58.250Z,9.30
2019-03-16T18:55:26.673Z,9.30
2019-03-16T18:57:55.113Z,9.30
2019-03-16T19:00:23.538Z,9.30
2019-03-16T19:02:51.989Z,9.30
2019-03-16T19:05:20.419Z,9.30
2019-03-16T19:07:48.897Z,9.40
2019-03-16T19:10:17.909Z,9.40
2019-03-16T19:12:46.416Z,9.40
2019-03-16T19:15:18.670Z,9.50
2019-03-16T19:17:58.132Z,9.50
2019-03-16T19:20:19.550Z,9.50
2019-03-16T19:22:49.187Z,9.40
2019-03-16T19:25:22.481Z,9.40
2019-03-16T19:27:51.013Z,9.50
2019-03-16T19:30:22.678Z,9.40
2019-03-16T19:32:51.141Z,9.40
2019-03-16T19:35:19.723Z,9.50
2019-03-16T19:37:48.142Z,9.50
2019-03-16T19:40:19.681Z,9.50
2019-03-16T19:42:48.164Z,9.50
2019-03-16T19:45:16.629Z,9.50
2019-03-16T19:47:45.235Z,9.50
2019-03-16T19:50:14.958Z,9.60
2019-03-16T19:52:43.523Z,9.60
2019-03-16T19:55:13.206Z,9.60
2019-03-16T19:57:41.651Z,9.60
2019-03-16T20:00:16.050Z,9.60
2019-03-16T20:02:49.984Z,9.70
2019-03-16T20:05:15.278Z,9.70
2019-03-16T20:07:43.708Z,9.70
2019-03-16T20:10:15.415Z,9.70
2019-03-16T20:12:43.837Z,9.70
2019-03-16T20:15:13.928Z,9.80
2019-03-16T20:17:42.349Z,9.80
2019-03-16T20:20:15.701Z,9.80
2019-03-16T20:22:44.131Z,9.80
2019-03-16T20:25:13.460Z,9.80
2019-03-16T20:27:41.878Z,9.80
2019-03-16T20:30:14.545Z,9.80
2019-03-16T20:32:48.210Z,9.80
2019-03-16T20:35:13.957Z,9.80
2019-03-16T20:37:42.546Z,9.80
2019-03-16T20:40:13.520Z,9.80
2019-03-16T20:42:41.973Z,9.90
2019-03-16T20:45:12.166Z,9.90
2019-03-16T20:47:40.861Z,9.90
2019-03-16T20:50:17.953Z,9.90
2019-03-16T20:52:46.362Z,9.90
2019-03-16T20:55:15.240Z,9.90
2019-03-16T20:57:43.787Z,10.00
2019-03-16T21:00:17.689Z,10.00
2019-03-16T21:02:46.199Z,9.90
2019-03-16T21:05:14.895Z,9.90
2019-03-16T21:07:43.311Z,10.00
2019-03-16T21:10:13.569Z,10.00
2019-03-16T21:12:42.027Z,10.00
2019-03-16T21:15:14.067Z,10.00
2019-03-16T21:17:42.861Z,10.00
2019-03-16T21:20:16.409Z,10.00
2019-03-16T21:22:44.921Z,10.00
2019-03-16T21:25:14.713Z,10.00
2019-03-16T21:27:43.170Z,10.00
2019-03-16T21:30:19.506Z,10.00
2019-03-16T21:32:47.966Z,10.00
2019-03-16T21:35:16.469Z,10.00
2019-03-16T21:37:44.900Z,10.10
2019-03-16T21:40:14.777Z,10.00
2019-03-16T21:42:43.224Z,10.10
2019-03-16T21:45:13.052Z,10.10
2019-03-16T21:47:41.527Z,10.00
2019-03-16T21:50:12.001Z,10.10
2019-03-16T21:52:40.451Z,10.10
2019-03-16T21:55:10.621Z,10.10
2019-03-16T21:57:39.135Z,10.10
2019-03-16T22:00:15.701Z,10.10
2019-03-16T22:02:44.130Z,10.70
2019-03-16T22:05:12.724Z,11.50
2019-03-16T22:07:41.443Z,12.00
2019-03-16T22:10:11.906Z,11.30
2019-03-16T22:12:40.465Z,10.70
2019-03-16T22:15:11.449Z,10.30
2019-03-16T22:17:40.122Z,10.20
2019-03-16T22:20:11.842Z,10.10
2019-03-16T22:22:40.376Z,10.10
2019-03-16T22:25:10.575Z,10.00
2019-03-16T22:27:40.475Z,10.00
2019-03-16T22:30:11.818Z,10.00
2019-03-16T22:32:43.120Z,10.00
2019-03-16T22:35:11.752Z,10.00
2019-03-16T22:37:40.193Z,10.00
2019-03-16T22:40:15.250Z,10.00
2019-03-16T22:42:43.833Z,10.00
2019-03-16T22:45:14.451Z,10.00
2019-03-16T22:47:42.869Z,10.00
2019-03-16T22:50:13.545Z,10.00
2019-03-16T22:52:43.398Z,10.00
2019-03-16T22:55:15.670Z,9.90
2019-03-16T22:57:45.144Z,9.90
2019-03-16T23:00:20.085Z,9.90
2019-03-16T23:02:48.515Z,10.00
2019-03-16T23:05:17.176Z,9.90
2019-03-16T23:07:45.605Z,10.00
2019-03-16T23:10:14.217Z,10.00
2019-03-16T23:12:42.669Z,10.00
2019-03-16T23:15:11.854Z,10.00
2019-03-16T23:17:43.864Z,10.00
2019-03-16T23:20:12.945Z,10.00
2019-03-16T23:22:41.379Z,10.00
2019-03-16T23:25:10.807Z,10.00
2019-03-16T23:27:39.229Z,10.00
2019-03-16T23:30:09.421Z,10.40
2019-03-16T23:32:38.117Z,10.20
2019-03-16T23:35:08.414Z,10.10
2019-03-16T23:37:36.840Z,10.10
2019-03-16T23:40:07.921Z,10.10
2019-03-16T23:42:36.365Z,10.10
2019-03-16T23:45:07.401Z,10.10
2019-03-16T23:47:37.364Z,10.10
2019-03-16T23:50:08.585Z,10.10
2019-03-16T23:52:37.314Z,10.10
2019-03-16T23:55:09.841Z,10.10
2019-03-16T23:57:38.534Z,10.10
